Time;durP1;ratioP1;P1;durP2;ratioP2;P2;SDS_P1;SDS_P2;PMS_P1;PMS_P2;Temp;Humidity;BMP_temperature;BMP_pressure;BME280_temperature;BME280_humidity;BME280_pressure;Samples;Min_cycle;Max_cycle;Signal;HPM_P1;HPM_P2
2023/12/20 00:00:39;;;;;;;0.85;0.85;;;17.20;81.90;;;;;;5848570;23;45433;-57
2023/12/20 00:03:27;;;;;;;3.38;1.00;;;17.30;81.90;;;;;;5871063;23;46071;-58
2023/12/20 00:05:57;;;;;;;1.25;1.08;;;17.20;81.70;;;;;;5852245;23;45253;-57
2023/12/20 00:11:32;;;;;;;1.95;1.25;;;17.30;81.90;;;;;;5831719;23;45127;-58
2023/12/20 00:14:04;;;;;;;3.15;1.00;;;17.30;81.20;;;;;;5807990;23;45798;-57
2023/12/20 00:16:57;;;;;;;1.25;0.90;;;17.30;81.50;;;;;;5823728;23;45358;-57
2023/12/20 00:19:32;;;;;;;2.03;1.10;;;17.30;81.30;;;;;;5839945;23;45674;-57
2023/12/20 00:22:29;;;;;;;1.20;1.00;;;17.30;81.30;;;;;;5827231;23;45275;-56
2023/12/20 00:25:19;;;;;;;1.10;0.90;;;17.30;81.20;;;;;;5848323;23;46448;-56
2023/12/20 00:28:09;;;;;;;2.60;1.02;;;17.30;81.40;;;;;;5840455;23;45123;-56
2023/12/20 00:31:05;;;;;;;0.85;0.80;;;17.30;81.80;;;;;;5833258;23;45427;-56
2023/12/20 00:34:03;;;;;;;1.00;0.85;;;17.30;81.50;;;;;;5856037;23;45273;-56
2023/12/20 00:36:51;;;;;;;1.60;0.95;;;17.30;81.00;;;;;;5844402;23;45852;-56
2023/12/20 00:39:20;;;;;;;2.05;1.00;;;17.30;81.00;;;;;;5827174;23;45473;-56
2023/12/20 00:42:17;;;;;;;1.00;0.90;;;17.20;82.50;;;;;;5864832;23;45794;-56
2023/12/20 00:44:57;;;;;;;1.30;0.90;;;17.20;82.60;;;;;;5831950;23;45431;-56
2023/12/20 00:47:59;;;;;;;1.30;0.77;;;17.20;81.60;;;;;;5826390;23;46213;-56
2023/12/20 00:50:47;;;;;;;1.38;0.93;;;17.20;81.70;;;;;;5842759;23;45415;-56
2023/12/20 00:53:17;;;;;;;1.85;1.05;;;17.20;81.70;;;;;;5828537;23;45120;-56
2023/12/20 00:55:46;;;;;;;1.83;0.90;;;17.20;81.60;;;;;;5818138;23;45363;-56
2023/12/20 00:58:17;;;;;;;1.00;0.90;;;17.20;81.70;;;;;;5871374;23;46346;-56
2023/12/20 01:00:47;;;;;;;1.35;0.98;;;17.10;81.50;;;;;;5833792;23;45687;-56
2023/12/20 01:03:45;;;;;;;0.85;0.80;;;17.20;81.50;;;;;;5881004;23;45082;-56
2023/12/20 01:06:33;;;;;;;2.03;0.90;;;17.20;81.60;;;;;;5848790;23;45079;-56
2023/12/20 01:09:00;;;;;;;1.38;1.13;;;17.20;81.60;;;;;;5825211;23;46103;-56
2023/12/20 01:11:30;;;;;;;1.70;1.08;;;17.20;81.60;;;;;;5836727;23;45292;-56
2023/12/20 01:14:17;;;;;;;1.70;1.10;;;17.20;80.70;;;;;;5822583;23;45226;-56
2023/12/20 01:16:48;;;;;;;2.22;1.25;;;17.20;81.40;;;;;;5847576;23;45498;-56
2023/12/20 01:19:44;;;;;;;2.03;1.13;;;17.20;81.20;;;;;;5809829;23;45877;-55
2023/12/20 01:22:37;;;;;;;2.08;0.80;;;17.20;80.80;;;;;;5864320;23;45536;-56
2023/12/20 01:25:16;;;;;;;2.17;0.90;;;17.10;81.60;;;;;;5819977;23;45317;-56
2023/12/20 01:27:53;;;;;;;3.90;1.30;;;17.10;81.00;;;;;;5823087;23;45390;-56
2023/12/20 01:30:41;;;;;;;2.42;1.25;;;17.10;80.70;;;;;;5833983;23;46391;-56
2023/12/20 01:33:23;;;;;;;2.08;1.02;;;17.10;80.70;;;;;;5823710;23;45408;-56
2023/12/20 01:36:31;;;;;;;2.55;0.95;;;17.10;80.00;;;;;;5844130;23;45796;-56
2023/12/20 01:39:21;;;;;;;1.83;1.02;;;17.10;79.80;;;;;;5810498;23;45345;-55
2023/12/20 01:42:14;;;;;;;1.63;1.05;;;17.10;79.80;;;;;;5863662;23;45734;-56
2023/12/20 01:45:02;;;;;;;1.50;0.77;;;17.10;79.30;;;;;;5844986;23;45311;-56
2023/12/20 01:47:51;;;;;;;1.20;0.70;;;17.10;78.80;;;;;;5835726;23;45385;-55
2023/12/20 01:50:41;;;;;;;4.30;1.08;;;17.20;79.60;;;;;;5822999;23;45167;-57
2023/12/20 01:53:36;;;;;;;2.15;1.00;;;17.20;79.10;;;;;;5852870;23;46699;-57
2023/12/20 01:56:24;;;;;;;1.48;0.85;;;17.10;79.30;;;;;;5846648;23;45224;-56
2023/12/20 01:58:51;;;;;;;3.88;1.30;;;17.10;78.10;;;;;;5846239;23;45758;-56
2023/12/20 02:01:28;;;;;;;1.48;1.02;;;17.10;78.20;;;;;;5840853;23;45343;-57
2023/12/20 02:04:30;;;;;;;1.98;1.10;;;17.10;77.60;;;;;;5828310;23;45536;-57
2023/12/20 02:07:29;;;;;;;6.82;1.50;;;17.10;76.30;;;;;;5843646;23;45330;-57
2023/12/20 02:09:56;;;;;;;3.05;1.08;;;17.10;76.70;;;;;;5833049;23;45374;-57
2023/12/20 02:12:23;;;;;;;2.03;0.90;;;17.00;76.10;;;;;;5843190;23;45498;-56
2023/12/20 02:15:07;;;;;;;4.20;1.10;;;17.00;75.70;;;;;;5854692;23;47388;-56
2023/12/20 02:18:01;;;;;;;2.25;0.98;;;17.00;75.60;;;;;;5848070;23;45126;-56
2023/12/20 02:20:38;;;;;;;3.40;1.20;;;17.00;75.60;;;;;;5835387;23;45366;-58
2023/12/20 02:23:17;;;;;;;2.47;0.95;;;17.00;75.60;;;;;;5818209;23;45215;-57
2023/12/20 02:25:44;;;;;;;3.10;1.10;;;17.00;75.60;;;;;;5823038;23;46034;-56
2023/12/20 02:28:33;;;;;;;3.20;0.93;;;17.00;75.70;;;;;;5827531;23;45525;-56
2023/12/20 02:31:00;;;;;;;1.70;0.90;;;17.00;75.40;;;;;;5840535;23;45132;-56
2023/12/20 02:33:44;;;;;;;2.63;1.00;;;17.00;75.20;;;;;;5825225;23;45259;-57
2023/12/20 02:36:33;;;;;;;1.77;0.80;;;17.10;75.90;;;;;;5859113;23;46534;-57
2023/12/20 02:39:27;;;;;;;4.05;1.08;;;17.00;75.60;;;;;;5853570;23;45294;-56
2023/12/20 02:42:03;;;;;;;4.78;1.25;;;17.10;75.30;;;;;;5801213;23;45377;-56
2023/12/20 02:44:56;;;;;;;4.28;1.15;;;17.10;74.60;;;;;;5836004;23;45736;-56
2023/12/20 02:47:32;;;;;;;2.38;0.90;;;17.10;74.30;;;;;;5821480;23;46074;-57
2023/12/20 02:50:15;;;;;;;3.67;0.98;;;17.10;75.10;;;;;;5847124;23;45657;-57
2023/12/20 02:52:52;;;;;;;3.88;0.75;;;17.10;75.20;;;;;;5840736;23;45133;-57
2023/12/20 02:55:24;;;;;;;3.53;0.85;;;17.10;74.20;;;;;;5848534;23;45268;-56
2023/12/20 02:57:50;;;;;;;3.42;1.00;;;17.00;74.30;;;;;;5832338;23;46802;-56
2023/12/20 03:00:49;;;;;;;3.17;0.98;;;17.00;74.30;;;;;;5827080;23;45444;-57
2023/12/20 03:03:43;;;;;;;4.55;0.90;;;17.00;74.10;;;;;;5862061;23;45471;-56
2023/12/20 03:06:38;;;;;;;3.92;1.00;;;17.00;73.70;;;;;;5825274;23;45383;-56
2023/12/20 03:09:07;;;;;;;3.97;1.00;;;17.00;73.60;;;;;;5838342;23;46701;-56
2023/12/20 03:11:58;;;;;;;2.15;0.88;;;17.00;73.30;;;;;;5857396;23;45776;-57
2023/12/20 03:14:34;;;;;;;3.17;1.10;;;17.00;73.30;;;;;;5846319;23;45422;-57
2023/12/20 03:17:25;;;;;;;3.17;0.93;;;17.00;73.40;;;;;;5854416;23;45349;-56
2023/12/20 03:19:52;;;;;;;2.75;0.77;;;16.90;73.00;;;;;;5839649;23;45836;-57
2023/12/20 03:22:46;;;;;;;3.45;0.90;;;16.90;72.90;;;;;;5858319;23;45188;-57
2023/12/20 03:25:34;;;;;;;2.75;0.80;;;16.90;72.90;;;;;;5831313;23;45262;-57
2023/12/20 03:28:26;;;;;;;3.40;1.20;;;17.00;73.30;;;;;;5850687;23;45156;-56
2023/12/20 03:31:14;;;;;;;3.33;0.90;;;17.00;72.70;;;;;;5821907;23;46987;-56
2023/12/20 03:33:41;;;;;;;3.92;1.08;;;17.00;72.30;;;;;;5840289;23;45110;-56
2023/12/20 03:36:08;;;;;;;2.15;0.88;;;17.00;72.30;;;;;;5852167;23;45296;-57
2023/12/20 03:38:35;;;;;;;2.67;0.70;;;17.00;72.10;;;;;;5816799;23;45428;-56
2023/12/20 03:41:14;;;;;;;4.53;1.05;;;17.00;72.10;;;;;;5845385;23;46198;-56
2023/12/20 03:44:02;;;;;;;5.68;1.17;;;17.00;72.00;;;;;;5832305;23;45254;-56
2023/12/20 03:46:57;;;;;;;3.35;0.98;;;17.00;71.80;;;;;;5851883;23;45238;-56
2023/12/20 03:49:23;;;;;;;2.35;0.90;;;17.00;71.50;;;;;;5811802;23;45240;-57
2023/12/20 03:51:50;;;;;;;5.32;1.17;;;17.00;71.40;;;;;;5862969;23;47299;-56
2023/12/20 03:54:45;;;;;;;3.22;0.88;;;16.90;71.30;;;;;;5841847;23;45710;-56
2023/12/20 03:57:12;;;;;;;4.53;1.00;;;16.90;71.80;;;;;;5839709;23;45272;-56
2023/12/20 03:59:40;;;;;;;4.00;1.10;;;16.90;71.30;;;;;;5853706;23;45235;-57
2023/12/20 04:02:34;;;;;;;2.35;0.82;;;16.90;70.90;;;;;;5845089;23;45815;-56
2023/12/20 04:05:34;;;;;;;2.85;0.80;;;16.90;70.40;;;;;;5866183;23;45283;-56
2023/12/20 04:08:27;;;;;;;2.80;0.70;;;16.90;71.00;;;;;;5821809;23;45352;-56
2023/12/20 04:10:54;;;;;;;2.28;0.95;;;16.90;71.10;;;;;;5830777;23;45211;-57
2023/12/20 04:13:36;;;;;;;4.25;1.45;;;16.90;70.40;;;;;;5833931;23;47075;-57
2023/12/20 04:16:29;;;;;;;3.08;1.08;;;16.90;70.50;;;;;;5856939;23;45269;-56
2023/12/20 04:19:21;;;;;;;3.10;1.40;;;16.90;71.00;;;;;;5826947;23;45682;-56
2023/12/20 04:21:49;;;;;;;5.00;1.17;;;16.90;70.50;;;;;;5836257;23;45478;-57
2023/12/20 04:24:15;;;;;;;4.70;0.90;;;16.90;70.20;;;;;;5844694;23;46432;-57
2023/12/20 04:27:08;;;;;;;5.50;1.48;;;16.90;71.00;;;;;;5833077;23;45822;-56
2023/12/20 04:30:01;;;;;;;5.47;1.38;;;16.90;69.90;;;;;;5838934;23;45401;-56
2023/12/20 04:32:39;;;;;;;4.55;1.20;;;16.90;70.50;;;;;;5836624;23;45202;-56
2023/12/20 04:35:31;;;;;;;2.85;1.02;;;16.90;69.50;;;;;;5839892;23;46358;-57
2023/12/20 04:38:20;;;;;;;4.20;1.15;;;16.90;69.60;;;;;;5852443;23;45375;-56
2023/12/20 04:41:15;;;;;;;5.10;1.02;;;17.00;69.70;;;;;;5831819;23;45567;-55
2023/12/20 04:43:47;;;;;;;4.53;1.30;;;16.90;69.70;;;;;;5832821;23;45744;-56
2023/12/20 04:46:48;;;;;;;6.28;1.10;;;16.90;70.50;;;;;;5839768;23;45929;-56
2023/12/20 04:49:36;;;;;;;4.97;1.35;;;16.90;69.50;;;;;;5874269;23;45314;-56
2023/12/20 04:52:26;;;;;;;3.40;1.23;;;16.90;68.80;;;;;;5814840;23;45437;-56
2023/12/20 04:54:54;;;;;;;4.32;1.48;;;16.90;69.20;;;;;;5815289;23;45284;-56
2023/12/20 04:57:45;;;;;;;2.92;1.10;;;16.90;69.50;;;;;;5842290;23;46285;-56
2023/12/20 05:00:37;;;;;;;8.02;1.40;;;16.90;69.10;;;;;;5835650;23;45455;-56
2023/12/20 05:03:23;;;;;;;5.25;1.08;;;16.90;68.30;;;;;;5844764;23;45268;-57
2023/12/20 05:05:50;;;;;;;3.83;0.90;;;16.90;68.20;;;;;;5828748;23;45275;-56
2023/12/20 05:08:18;;;;;;;2.47;1.17;;;16.90;68.90;;;;;;5873781;23;47117;-56
2023/12/20 05:10:45;;;;;;;4.85;1.33;;;16.80;68.10;;;;;;5854712;23;45370;-56
2023/12/20 05:13:40;;;;;;;3.33;1.05;;;16.90;68.50;;;;;;5865201;23;45279;-55
2023/12/20 05:16:39;;;;;;;3.58;1.25;;;16.90;69.00;;;;;;5864302;23;45164;-57
2023/12/20 05:19:08;;;;;;;3.83;1.10;;;16.80;69.10;;;;;;5821695;23;48559;-56
2023/12/20 05:21:57;;;;;;;4.38;1.40;;;16.90;68.90;;;;;;5774361;23;45402;-56
2023/12/20 05:24:25;;;;;;;3.30;1.15;;;16.90;68.80;;;;;;5791785;23;45203;-56
2023/12/20 05:27:06;;;;;;;2.63;1.10;;;16.90;68.60;;;;;;5809546;23;45448;-56
2023/12/20 05:30:02;;;;;;;3.50;1.10;;;16.90;69.40;;;;;;5782159;23;45637;-57
2023/12/20 05:32:31;;;;;;;4.82;1.20;;;16.80;68.40;;;;;;5762604;23;45200;-56
2023/12/20 05:34:57;;;;;;;3.08;1.00;;;16.90;68.60;;;;;;5769102;23;45459;-57
2023/12/20 05:37:37;;;;;;;3.83;1.10;;;16.80;68.80;;;;;;5819681;23;45354;-56
2023/12/20 05:40:10;;;;;;;4.18;1.10;;;16.80;69.20;;;;;;5773305;23;47470;-56
2023/12/20 05:42:49;;;;;;;2.63;1.02;;;16.80;69.70;;;;;;5791826;23;45378;-55
2023/12/20 05:45:51;;;;;;;3.92;1.00;;;16.80;69.60;;;;;;5795300;23;45245;-56
2023/12/20 05:49:04;;;;;;;3.88;1.00;;;16.80;69.40;;;;;;5755127;23;45400;-56
2023/12/20 05:51:31;;;;;;;3.17;1.02;;;16.80;69.70;;;;;;5778036;23;45374;-57
2023/12/20 05:53:58;;;;;;;3.85;1.10;;;16.80;69.40;;;;;;5788157;23;45358;-56
2023/12/20 05:56:56;;;;;;;3.92;1.00;;;16.80;69.80;;;;;;5801714;23;45246;-55
2023/12/20 05:59:39;;;;;;;3.42;0.93;;;16.80;70.00;;;;;;5776367;23;45587;-56
2023/12/20 06:02:18;;;;;;;2.58;1.00;;;16.80;70.10;;;;;;5769579;23;45484;-57
2023/12/20 06:04:45;;;;;;;8.20;1.67;;;16.80;69.10;;;;;;5775344;23;45546;-55
2023/12/20 06:07:23;;;;;;;4.07;1.25;;;16.90;74.80;;;;;;5785902;23;45278;-55
2023/12/20 06:09:50;;;;;;;3.20;1.02;;;17.10;75.70;;;;;;5788548;23;45370;-55
2023/12/20 06:12:28;;;;;;;7.88;1.15;;;17.20;75.50;;;;;;5777685;23;47105;-55
2023/12/20 06:15:01;;;;;;;5.78;1.52;;;17.20;75.00;;;;;;5790277;23;44976;-55
2023/12/20 06:17:50;;;;;;;6.05;1.20;;;17.30;74.80;;;;;;5778921;23;45380;-55
2023/12/20 06:20:47;;;;;;;2.63;0.90;;;17.30;74.70;;;;;;5782961;23;45598;-55
2023/12/20 06:23:14;;;;;;;6.88;1.17;;;17.30;74.60;;;;;;5792714;23;46743;-56
2023/12/20 06:26:03;;;;;;;3.53;0.90;;;17.40;74.50;;;;;;5780293;23;45323;-55
2023/12/20 06:28:29;;;;;;;7.07;1.38;;;17.40;74.50;;;;;;5787856;23;45375;-57
2023/12/20 06:31:34;;;;;;;4.13;0.98;;;17.30;73.10;;;;;;5817630;23;45483;-57
2023/12/20 06:34:39;;;;;;;2.88;0.75;;;17.20;71.10;;;;;;5816015;23;45402;-56
2023/12/20 06:37:09;;;;;;;1.70;0.88;;;17.10;70.30;;;;;;5764335;23;45312;-56
2023/12/20 06:39:38;;;;;;;5.28;1.27;;;17.10;70.60;;;;;;5757587;23;45290;-58
2023/12/20 06:42:05;;;;;;;5.25;1.13;;;17.10;69.90;;;;;;5768278;23;45384;-57
2023/12/20 06:45:09;;;;;;;3.60;0.90;;;17.10;69.80;;;;;;5774594;23;46224;-57
2023/12/20 06:47:36;;;;;;;3.90;1.23;;;17.20;69.90;;;;;;5770592;23;45314;-57
2023/12/20 06:50:33;;;;;;;6.70;1.20;;;17.20;69.70;;;;;;5789510;23;45223;-57
2023/12/20 06:53:22;;;;;;;4.93;1.30;;;17.10;69.40;;;;;;5789707;23;45308;-56
2023/12/20 06:58:49;;;;;;;3.35;1.23;;;17.20;69.30;;;;;;5770891;23;45281;-57
2023/12/20 07:01:17;;;;;;;4.10;1.10;;;17.10;69.20;;;;;;5773103;23;45249;-56
2023/12/20 07:03:43;;;;;;;4.68;1.20;;;17.10;69.20;;;;;;5797394;23;45126;-57
2023/12/20 07:06:12;;;;;;;4.53;1.20;;;17.20;69.20;;;;;;5782655;23;46134;-57
2023/12/20 07:08:42;;;;;;;5.57;1.08;;;17.10;69.10;;;;;;5779530;23;45245;-57
2023/12/20 07:11:24;;;;;;;3.83;0.90;;;17.10;69.30;;;;;;5758483;23;45516;-56
2023/12/20 07:14:12;;;;;;;5.60;1.05;;;17.10;70.20;;;;;;5811518;23;45578;-56
2023/12/20 07:16:38;;;;;;;4.05;1.10;;;17.20;70.70;;;;;;5783848;23;46269;-56
2023/12/20 07:19:26;;;;;;;4.75;0.95;;;17.20;69.00;;;;;;5773465;23;45423;-56
2023/12/20 07:22:29;;;;;;;3.70;1.02;;;17.20;69.30;;;;;;5781251;23;45067;-55
2023/12/20 07:25:17;;;;;;;6.13;1.40;;;17.10;69.40;;;;;;5767443;23;45512;-55
2023/12/20 07:30:58;;;;;;;3.42;1.33;;;17.10;69.40;;;;;;5761596;23;45707;-55
2023/12/20 07:33:24;;;;;;;4.18;1.45;;;17.10;69.40;;;;;;5773641;23;45382;-55
2023/12/20 07:36:13;;;;;;;2.35;1.15;;;17.10;69.40;;;;;;5789772;23;45330;-55
2023/12/20 07:38:55;;;;;;;6.30;1.65;;;17.10;69.70;;;;;;5789089;23;46257;-55
2023/12/20 07:41:39;;;;;;;3.45;1.42;;;17.00;69.40;;;;;;5767008;23;45334;-56
2023/12/20 07:44:23;;;;;;;3.78;1.30;;;17.00;69.40;;;;;;5813852;23;45248;-55
2023/12/20 07:47:21;;;;;;;4.85;1.27;;;17.00;69.40;;;;;;5815874;23;45706;-55
2023/12/20 07:50:19;;;;;;;3.33;1.45;;;17.00;69.20;;;;;;5781476;23;46955;-55
2023/12/20 07:53:01;;;;;;;5.25;1.48;;;17.00;69.20;;;;;;5774015;23;45445;-55
2023/12/20 07:55:31;;;;;;;4.68;1.10;;;17.00;69.10;;;;;;5783195;23;45392;-55
2023/12/20 07:58:36;;;;;;;3.17;1.05;;;17.00;69.10;;;;;;5787275;23;45973;-55
2023/12/20 08:01:30;;;;;;;3.75;1.30;;;17.00;69.10;;;;;;5781989;23;47433;-55
2023/12/20 08:03:57;;;;;;;2.42;1.00;;;17.10;68.90;;;;;;5797376;23;45500;-55
2023/12/20 08:06:52;;;;;;;4.43;1.15;;;17.10;69.10;;;;;;5785215;23;45237;-55
2023/12/20 08:09:43;;;;;;;3.08;1.40;;;17.10;68.90;;;;;;5772120;23;45409;-55
2023/12/20 08:12:13;;;;;;;4.53;1.45;;;17.10;69.00;;;;;;5768958;23;45550;-55
2023/12/20 08:14:53;;;;;;;3.40;0.88;;;17.10;68.90;;;;;;5820222;23;45301;-55
2023/12/20 08:18:08;;;;;;;3.92;1.23;;;17.10;69.10;;;;;;5795796;23;45767;-55
2023/12/20 08:21:07;;;;;;;2.67;1.10;;;17.20;69.10;;;;;;5774499;23;45256;-55
2023/12/20 08:23:34;;;;;;;5.07;1.60;;;17.20;68.90;;;;;;5783238;23;47441;-55
2023/12/20 08:26:37;;;;;;;5.85;1.33;;;17.10;68.90;;;;;;5777998;23;45433;-55
2023/12/20 08:29:06;;;;;;;4.32;1.63;;;17.10;68.80;;;;;;5785280;23;45288;-55
2023/12/20 08:31:33;;;;;;;3.47;1.20;;;17.00;68.50;;;;;;5770575;23;45317;-56
2023/12/20 08:34:14;;;;;;;4.40;1.10;;;17.10;68.50;;;;;;5790555;23;46556;-55
2023/12/20 08:40:18;;;;;;;4.47;1.35;;;17.00;68.50;;;;;;5712370;23;45377;-55
2023/12/20 08:42:45;;;;;;;2.53;1.13;;;17.00;67.80;;;;;;5778354;23;45390;-55
2023/12/20 08:45:39;;;;;;;5.70;1.30;;;17.00;67.70;;;;;;5783964;23;45665;-55
2023/12/20 08:48:33;;;;;;;8.02;1.88;;;17.00;67.60;;;;;;5783671;23;45527;-55
2023/12/20 08:51:22;;;;;;;5.70;1.73;;;17.00;69.20;;;;;;5800312;23;45395;-55
2023/12/20 08:53:49;;;;;;;4.20;1.30;;;16.90;68.90;;;;;;5800895;23;45463;-55
2023/12/20 08:56:17;;;;;;;4.18;1.40;;;16.90;69.60;;;;;;5800109;23;47560;-55
2023/12/20 08:59:03;;;;;;;5.60;1.35;;;16.90;68.40;;;;;;5776768;23;45072;-55
2023/12/20 09:04:34;;;;;;;4.90;1.17;;;16.90;68.10;;;;;;5792804;23;45397;-55
2023/12/20 09:07:23;;;;;;;4.68;1.52;;;16.90;67.80;;;;;;5797650;23;45833;-55
2023/12/20 09:10:03;;;;;;;4.18;1.05;;;16.90;67.60;;;;;;5803394;23;45340;-55
2023/12/20 09:12:56;;;;;;;3.90;1.15;;;16.90;67.70;;;;;;5799431;23;45296;-55
2023/12/20 09:18:16;;;;;;;5.30;1.48;;;16.90;67.90;;;;;;5769906;23;46198;-59
2023/12/20 09:20:45;;;;;;;8.35;1.95;;;16.90;68.80;;;;;;5781945;23;45340;-55
2023/12/20 09:23:24;;;;;;;5.05;1.10;;;16.90;74.30;;;;;;5807842;23;45274;-55
2023/12/20 09:26:06;;;;;;;5.90;1.75;;;17.10;74.50;;;;;;5866056;23;45360;-55
2023/12/20 09:28:36;;;;;;;5.90;1.42;;;17.20;74.30;;;;;;5760881;23;46619;-56
2023/12/20 09:31:19;;;;;;;5.68;1.10;;;17.20;75.10;;;;;;5779603;23;45083;-55
2023/12/20 09:34:16;;;;;;;8.00;1.52;;;17.20;73.90;;;;;;5817212;23;45146;-55
2023/12/20 09:37:17;;;;;;;6.40;1.13;;;17.30;74.30;;;;;;5811417;23;45549;-55
2023/12/20 09:39:45;;;;;;;4.88;1.08;;;17.30;74.70;;;;;;5794962;23;46382;-55
2023/12/20 09:42:57;;;;;;;2.63;0.95;;;17.30;74.60;;;;;;5781588;23;45237;-55
2023/12/20 09:46:11;;;;;;;1.98;0.77;;;17.30;74.30;;;;;;5933144;23;45204;-55
2023/12/20 09:48:54;;;;;;;5.75;1.17;;;17.30;74.30;;;;;;5853808;23;45402;-56
2023/12/20 09:51:46;;;;;;;5.43;1.35;;;17.30;74.10;;;;;;5807474;23;47278;-56
2023/12/20 09:54:54;;;;;;;5.45;1.17;;;17.30;73.60;;;;;;5810617;23;45424;-56
2023/12/20 10:01:16;;;;;;;2.33;1.05;;;17.30;73.40;;;;;;5789107;23;45484;-55
2023/12/20 10:03:45;;;;;;;5.05;1.00;;;17.40;74.10;;;;;;5800663;23;46385;-55
2023/12/20 10:06:47;;;;;;;3.42;1.13;;;17.40;73.90;;;;;;5798444;23;45230;-55
2023/12/20 10:09:15;;;;;;;7.25;1.50;;;17.40;73.60;;;;;;5832862;23;45276;-56
2023/12/20 10:12:07;;;;;;;4.68;0.93;;;17.40;73.80;;;;;;5811289;23;45375;-55
2023/12/20 10:14:34;;;;;;;1.55;0.82;;;17.40;74.10;;;;;;5782461;23;46397;-55
2023/12/20 10:17:34;;;;;;;3.78;1.05;;;17.40;74.00;;;;;;5808181;23;45307;-55
2023/12/20 10:20:11;;;;;;;4.00;1.20;;;17.40;73.70;;;;;;5813011;23;45248;-55
2023/12/20 10:25:19;;;;;;;3.70;1.02;;;17.40;74.20;;;;;;5771575;23;45954;-55
2023/12/20 10:27:47;;;;;;;1.90;0.70;;;17.40;73.80;;;;;;5833112;23;45174;-54
2023/12/20 10:30:14;;;;;;;2.83;0.90;;;17.40;73.50;;;;;;5799794;23;45084;-54
2023/12/20 10:32:56;;;;;;;4.95;1.55;;;17.40;74.10;;;;;;5790596;23;45448;-54
2023/12/20 10:42:08;;;;;;;2.00;0.63;;;17.50;73.90;;;;;;5774525;23;45213;-54
2023/12/20 10:45:27;;;;;;;2.45;0.80;;;17.50;74.30;;;;;;5811402;23;45232;-54
2023/12/20 10:47:54;;;;;;;3.72;0.82;;;17.50;74.00;;;;;;5801328;23;46440;-54
2023/12/20 10:51:01;;;;;;;2.95;0.93;;;17.50;74.20;;;;;;5829751;23;45104;-54
2023/12/20 10:56:45;;;;;;;2.70;1.10;;;17.50;73.60;;;;;;5823448;23;45483;-54
2023/12/20 10:59:37;;;;;;;2.42;0.90;;;17.40;73.70;;;;;;5794615;23;46782;-54
2023/12/20 11:02:06;;;;;;;3.78;1.20;;;17.50;73.90;;;;;;5799191;23;45201;-54
2023/12/20 11:05:13;;;;;;;3.30;0.82;;;17.50;73.50;;;;;;5802441;23;45525;-54
2023/12/20 11:14:08;;;;;;;4.90;0.95;;;17.50;73.80;;;;;;5784267;23;45496;-54
2023/12/20 11:16:37;;;;;;;3.15;0.90;;;17.50;73.60;;;;;;5796657;23;45560;-54
2023/12/20 11:19:27;;;;;;;2.25;0.90;;;17.50;73.40;;;;;;5812868;23;45275;-54
2023/12/20 11:22:21;;;;;;;2.88;0.88;;;17.50;73.90;;;;;;5804384;23;47358;-54
2023/12/20 11:25:21;;;;;;;2.15;0.80;;;17.50;73.60;;;;;;5834970;23;45484;-54
2023/12/20 11:28:10;;;;;;;3.20;0.85;;;17.50;73.60;;;;;;5795474;23;45466;-54
2023/12/20 11:31:06;;;;;;;2.67;1.00;;;17.50;73.50;;;;;;5793156;23;45671;-54
2023/12/20 11:37:49;;;;;;;3.72;1.02;;;17.50;73.70;;;;;;5787536;23;45133;-54
2023/12/20 11:40:35;;;;;;;2.33;0.88;;;17.50;74.10;;;;;;5814522;23;45336;-54
2023/12/20 11:46:45;;;;;;;3.13;0.98;;;17.50;73.90;;;;;;5751777;23;45754;-54
2023/12/20 11:52:52;;;;;;;1.77;0.63;;;17.50;73.60;;;;;;5733885;23;45338;-55
2023/12/20 11:55:45;;;;;;;3.60;1.38;;;17.50;73.40;;;;;;5801957;23;45553;-54
2023/12/20 11:58:38;;;;;;;2.95;0.75;;;17.50;73.60;;;;;;5844429;23;46002;-54
2023/12/20 12:04:26;;;;;;;2.83;0.98;;;17.50;73.60;;;;;;5766211;23;45463;-56
2023/12/20 12:07:16;;;;;;;3.38;1.10;;;17.50;74.20;;;;;;5813157;23;45285;-56
2023/12/20 12:13:35;;;;;;;3.28;0.90;;;17.50;74.20;;;;;;5806777;23;45364;-55
2023/12/20 12:16:02;;;;;;;2.65;1.10;;;17.50;74.50;;;;;;5815816;23;45361;-56
2023/12/20 12:22:12;;;;;;;5.47;1.20;;;17.50;74.40;;;;;;5786094;23;45473;-56
2023/12/20 12:24:40;;;;;;;1.52;0.90;;;17.50;74.00;;;;;;5790824;23;45280;-56
2023/12/20 12:27:17;;;;;;;4.40;1.10;;;17.50;74.30;;;;;;5820600;23;45100;-56
2023/12/20 12:32:48;;;;;;;2.30;0.88;;;17.50;74.30;;;;;;5762916;23;45729;-55
2023/12/20 12:35:16;;;;;;;2.53;0.85;;;17.50;74.20;;;;;;5828069;23;45865;-55
2023/12/20 12:38:09;;;;;;;2.65;0.90;;;17.50;73.90;;;;;;5795109;23;45298;-55
2023/12/20 12:40:36;;;;;;;2.42;0.88;;;17.50;74.50;;;;;;5842711;23;45627;-55
2023/12/20 12:43:17;;;;;;;3.13;0.90;;;17.50;73.90;;;;;;5827317;23;47617;-55
2023/12/20 12:45:51;;;;;;;3.05;0.82;;;17.50;74.00;;;;;;5791492;23;45320;-56
2023/12/20 12:48:18;;;;;;;3.90;0.95;;;17.50;73.90;;;;;;5783329;23;45288;-56
2023/12/20 12:50:46;;;;;;;3.85;1.05;;;17.50;74.00;;;;;;5806409;23;45634;-55
2023/12/20 12:53:50;;;;;;;3.38;0.90;;;17.50;74.20;;;;;;5800485;23;45990;-55
2023/12/20 12:56:40;;;;;;;4.95;0.82;;;17.50;74.10;;;;;;5793745;23;45555;-55
2023/12/20 12:59:29;;;;;;;4.55;0.90;;;17.50;73.80;;;;;;5803368;23;45604;-55
2023/12/20 13:01:58;;;;;;;2.08;0.70;;;17.50;74.20;;;;;;5792353;23;45760;-55
2023/12/20 13:04:25;;;;;;;1.45;0.70;;;17.50;74.30;;;;;;5780176;23;46650;-55
2023/12/20 13:07:02;;;;;;;2.83;0.77;;;17.50;74.30;;;;;;5806251;23;45152;-55
2023/12/20 13:09:50;;;;;;;2.75;0.80;;;17.50;74.40;;;;;;5774840;23;45206;-55
2023/12/20 13:12:18;;;;;;;2.42;0.57;;;17.60;74.40;;;;;;5790540;23;45340;-55
2023/12/20 13:14:54;;;;;;;3.92;0.85;;;17.50;74.50;;;;;;5784296;23;47125;-55
2023/12/20 13:17:39;;;;;;;3.13;1.00;;;17.60;74.80;;;;;;5802986;23;45360;-55
2023/12/20 13:20:38;;;;;;;3.58;1.00;;;17.60;74.90;;;;;;5809223;23;45418;-55
2023/12/20 13:23:06;;;;;;;3.17;0.75;;;17.50;75.00;;;;;;5803072;23;45373;-55
2023/12/20 13:25:52;;;;;;;3.15;0.82;;;17.60;75.10;;;;;;5814335;23;47836;-54
2023/12/20 13:28:19;;;;;;;3.42;1.20;;;17.60;74.70;;;;;;5796992;23;44987;-55
2023/12/20 13:31:01;;;;;;;2.75;0.77;;;17.60;75.20;;;;;;5786488;23;45258;-54
2023/12/20 13:34:02;;;;;;;2.45;0.88;;;17.50;74.50;;;;;;5813367;23;45424;-54
2023/12/20 13:36:42;;;;;;;1.63;0.88;;;17.50;73.70;;;;;;5822303;23;47137;-55
2023/12/20 13:39:13;;;;;;;3.38;0.93;;;17.60;73.70;;;;;;5843694;23;45282;-54
2023/12/20 13:44:20;;;;;;;3.97;0.90;;;17.60;72.80;;;;;;5789903;23;45244;-55
2023/12/20 13:47:08;;;;;;;1.88;0.68;;;17.60;72.40;;;;;;5820069;23;46909;-54
2023/12/20 13:52:39;;;;;;;4.07;0.90;;;17.70;71.00;;;;;;5783238;23;45122;-55
2023/12/20 13:55:32;;;;;;;2.08;0.80;;;17.70;72.10;;;;;;5829755;23;45513;-54
2023/12/20 13:58:21;;;;;;;2.63;1.20;;;17.70;71.70;;;;;;5818114;23;45968;-55
2023/12/20 14:00:48;;;;;;;2.78;1.00;;;17.70;72.40;;;;;;5808976;23;45337;-54
2023/12/20 14:03:37;;;;;;;1.88;0.90;;;17.70;71.70;;;;;;5810213;23;45120;-54
2023/12/20 14:06:26;;;;;;;3.08;0.80;;;17.70;71.80;;;;;;5813100;23;45325;-55
2023/12/20 14:11:34;;;;;;;4.05;1.20;;;17.80;71.80;;;;;;5786343;23;45038;-55
2023/12/20 14:14:01;;;;;;;1.88;0.98;;;17.80;70.80;;;;;;5800998;23;45360;-55
2023/12/20 14:16:28;;;;;;;2.88;0.90;;;17.80;70.70;;;;;;5811699;23;45172;-55
2023/12/20 14:19:03;;;;;;;2.55;1.05;;;17.90;71.00;;;;;;5820247;23;46427;-54
2023/12/20 14:21:34;;;;;;;2.75;1.10;;;18.00;70.80;;;;;;5789495;23;45383;-56
2023/12/20 14:24:14;;;;;;;3.83;1.13;;;18.00;69.40;;;;;;5812810;23;45200;-56
2023/12/20 14:26:55;;;;;;;3.55;1.08;;;17.90;68.80;;;;;;5805523;23;45123;-55
2023/12/20 14:29:38;;;;;;;2.70;1.13;;;17.80;68.90;;;;;;5811126;23;45847;-56
2023/12/20 14:32:28;;;;;;;1.73;0.98;;;17.70;68.80;;;;;;5822459;23;45257;-56
2023/12/20 14:35:16;;;;;;;3.25;1.23;;;17.60;69.00;;;;;;5830735;23;45285;-55
2023/12/20 14:38:10;;;;;;;3.45;1.05;;;17.60;69.00;;;;;;5834467;23;45386;-56
2023/12/20 14:40:38;;;;;;;3.70;1.08;;;17.60;69.40;;;;;;5816918;23;45706;-56
2023/12/20 14:43:29;;;;;;;4.30;1.25;;;17.60;69.80;;;;;;5827531;23;45400;-56
2023/12/20 14:45:56;;;;;;;1.67;0.80;;;17.60;69.60;;;;;;5829003;23;45404;-57
2023/12/20 14:48:53;;;;;;;3.13;1.15;;;17.60;69.80;;;;;;5832086;23;45296;-56
2023/12/20 14:51:38;;;;;;;3.13;1.17;;;17.50;70.00;;;;;;5798987;23;47571;-55
2023/12/20 14:54:20;;;;;;;3.33;1.00;;;17.60;70.20;;;;;;5816857;23;45320;-56
2023/12/20 14:56:47;;;;;;;3.63;1.05;;;17.50;70.50;;;;;;5806652;23;45169;-56
2023/12/20 14:59:14;;;;;;;6.35;1.35;;;17.50;70.40;;;;;;5804339;23;45243;-55
2023/12/20 15:01:41;;;;;;;1.98;0.75;;;17.50;70.30;;;;;;5822502;23;45444;-55
2023/12/20 15:04:28;;;;;;;2.63;1.00;;;17.50;70.70;;;;;;5830011;23;45215;-56
2023/12/20 15:07:24;;;;;;;2.33;1.23;;;17.50;70.90;;;;;;5784661;23;45203;-55
2023/12/20 15:10:04;;;;;;;2.92;0.90;;;17.50;70.90;;;;;;5816133;23;45072;-55
2023/12/20 15:12:36;;;;;;;1.50;0.90;;;17.50;71.00;;;;;;5799334;23;46465;-55
2023/12/20 15:15:28;;;;;;;3.10;0.90;;;17.50;70.90;;;;;;5787591;23;45628;-55
2023/12/20 15:18:17;;;;;;;2.08;0.80;;;17.50;70.70;;;;;;5830415;23;45439;-55